Time;durP1;ratioP1;P1;durP2;ratioP2;P2;SDS_P1;SDS_P2;PMS_P1;PMS_P2;Temp;Humidity;BMP_temperature;BMP_pressure;BME280_temperature;BME280_humidity;BME280_pressure;Samples;Min_cycle;Max_cycle;Signal;HPM_P1;HPM_P2
2022/03/17 00:01:30;;;;;;;22.10;11.95;;;;;;;;;;4197089;28;20104;-89
2022/03/17 00:03:31;;;;;;;25.00;12.35;;;;;;;;;;4214449;28;20403;-89
2022/03/17 00:05:32;;;;;;;26.55;12.93;;;;;;;;;;4212764;28;20412;-89
2022/03/17 00:07:33;;;;;;;21.95;10.98;;;;;;;;;;4212520;28;20048;-88
2022/03/17 00:09:34;;;;;;;25.88;13.07;;;;;;;;;;4212390;28;20538;-89
2022/03/17 00:11:35;;;;;;;24.65;12.25;;;;;;;;;;4212573;28;20051;-88
2022/03/17 00:13:36;;;;;;;24.17;12.75;;;;;;;;;;4212651;28;20093;-89
2022/03/17 00:15:40;;;;;;;23.05;12.10;;;;;;;;;;4195443;28;20059;-89
2022/03/17 00:17:42;;;;;;;25.77;13.07;;;;;;;;;;4213402;28;20044;-90
2022/03/17 00:19:45;;;;;;;24.02;11.35;;;;;;;;;;4215892;28;20052;-89
2022/03/17 00:21:47;;;;;;;24.08;12.35;;;;;;;;;;4216810;28;20052;-88
2022/03/17 00:23:52;;;;;;;21.13;11.13;;;;;;;;;;4216642;28;20047;-89
2022/03/17 00:25:54;;;;;;;27.67;12.32;;;;;;;;;;4216523;28;20124;-88
2022/03/17 00:27:55;;;;;;;24.25;12.25;;;;;;;;;;4218478;28;20058;-89
2022/03/17 00:29:57;;;;;;;22.17;11.60;;;;;;;;;;4217791;28;20093;-88
2022/03/17 00:31:58;;;;;;;24.48;12.65;;;;;;;;;;4215786;28;20052;-89
2022/03/17 00:33:59;;;;;;;23.27;12.32;;;;;;;;;;4216659;28;20048;-89
2022/03/17 00:36:00;;;;;;;24.60;11.70;;;;;;;;;;4216477;28;20458;-89
2022/03/17 00:38:02;;;;;;;21.48;11.93;;;;;;;;;;4216436;28;20044;-89
2022/03/17 00:40:04;;;;;;;25.30;13.50;;;;;;;;;;4217165;28;20087;-90
2022/03/17 00:42:05;;;;;;;24.80;12.27;;;;;;;;;;4199621;28;20087;-90
2022/03/17 00:44:06;;;;;;;23.08;12.77;;;;;;;;;;4200151;28;20048;-90
2022/03/17 00:46:07;;;;;;;34.67;14.20;;;;;;;;;;4216277;28;20048;-89
2022/03/17 00:48:09;;;;;;;23.63;12.95;;;;;;;;;;4216091;28;20056;-89
2022/03/17 00:50:11;;;;;;;26.67;13.32;;;;;;;;;;4215830;28;20553;-89
2022/03/17 00:52:14;;;;;;;23.75;12.32;;;;;;;;;;4198433;28;20041;-90
2022/03/17 00:54:15;;;;;;;20.45;12.15;;;;;;;;;;4215087;28;20051;-90
2022/03/17 00:56:19;;;;;;;25.50;12.88;;;;;;;;;;4214053;28;20044;-89
2022/03/17 00:58:22;;;;;;;24.25;13.50;;;;;;;;;;4216459;28;20040;-90
2022/03/17 01:00:23;;;;;;;28.20;12.32;;;;;;;;;;4214404;28;20122;-90
2022/03/17 01:02:25;;;;;;;26.92;12.50;;;;;;;;;;4231726;28;20047;-89
2022/03/17 01:04:27;;;;;;;24.13;12.93;;;;;;;;;;4215210;28;20048;-89
2022/03/17 01:06:29;;;;;;;22.52;12.60;;;;;;;;;;4216241;28;20104;-89
2022/03/17 01:08:30;;;;;;;22.67;12.30;;;;;;;;;;4215194;28;20438;-89
2022/03/17 01:10:31;;;;;;;22.08;12.15;;;;;;;;;;4215668;28;20055;-88
2022/03/17 01:12:32;;;;;;;26.90;13.38;;;;;;;;;;4215122;28;20044;-89
2022/03/17 01:14:33;;;;;;;23.17;13.10;;;;;;;;;;4235041;28;20131;-90
2022/03/17 01:16:35;;;;;;;23.23;12.80;;;;;;;;;;4198941;28;20097;-89
2022/03/17 01:18:37;;;;;;;25.80;12.85;;;;;;;;;;4215825;28;20052;-89
2022/03/17 01:20:38;;;;;;;25.13;14.05;;;;;;;;;;4218061;28;20059;-90
2022/03/17 01:22:39;;;;;;;25.00;12.95;;;;;;;;;;4234743;28;20043;-89
2022/03/17 01:24:40;;;;;;;29.35;12.38;;;;;;;;;;4214965;28;20492;-89
2022/03/17 01:26:41;;;;;;;24.42;12.65;;;;;;;;;;4214610;28;20513;-89
2022/03/17 01:28:42;;;;;;;24.77;11.45;;;;;;;;;;4198078;28;20071;-89
2022/03/17 01:30:43;;;;;;;21.65;11.70;;;;;;;;;;4214144;28;20047;-89
2022/03/17 01:32:45;;;;;;;22.25;12.65;;;;;;;;;;4214803;28;20126;-89
2022/03/17 01:34:46;;;;;;;20.75;12.20;;;;;;;;;;4214249;28;20051;-90
2022/03/17 01:36:48;;;;;;;26.15;12.93;;;;;;;;;;4230953;28;20133;-90
2022/03/17 01:38:49;;;;;;;23.40;11.88;;;;;;;;;;4231608;28;20047;-89
2022/03/17 01:40:50;;;;;;;26.95;13.15;;;;;;;;;;4231124;28;20043;-89
2022/03/17 01:42:52;;;;;;;25.58;12.13;;;;;;;;;;4214152;28;20123;-89
2022/03/17 01:44:55;;;;;;;30.70;12.90;;;;;;;;;;4231010;28;20514;-89
2022/03/17 01:49:18;;;;;;;25.45;13.10;;;;;;;;;;4214232;28;20055;-89
2022/03/17 01:51:19;;;;;;;24.45;12.60;;;;;;;;;;4231393;28;20444;-89
2022/03/17 01:53:22;;;;;;;26.63;13.70;;;;;;;;;;4215555;28;20074;-89
2022/03/17 01:55:25;;;;;;;24.52;12.73;;;11.40;92.80;;;;;;4216119;28;20070;-89
2022/03/17 01:57:26;;;;;;;24.02;12.77;;;10.20;97.20;;;;;;4198990;28;20048;-90
2022/03/17 01:59:27;;;;;;;26.20;14.10;;;10.10;97.10;;;;;;4198662;28;20099;-90
2022/03/17 02:01:29;;;;;;;25.17;13.23;;;10.10;97.20;;;;;;4214917;28;20048;-90
2022/03/17 02:03:30;;;;;;;24.00;13.77;;;10.10;97.10;;;;;;4215924;28;20480;-90
2022/03/17 02:05:30;;;;;;;24.88;13.15;;;9.40;97.20;;;;;;4214803;28;20136;-90
2022/03/17 02:07:32;;;;;;;23.52;13.95;;;10.10;97.30;;;;;;4198222;28;20512;-89
2022/03/17 02:09:35;;;;;;;25.27;13.07;;;10.00;97.50;;;;;;4216274;28;20102;-89
2022/03/17 02:13:56;;;;;;;24.27;13.63;;;10.00;97.50;;;;;;4214909;28;20048;-90
2022/03/17 02:15:57;;;;;;;21.85;12.38;;;10.00;97.60;;;;;;4214714;28;20067;-90
2022/03/17 02:18:02;;;;;;;23.23;12.32;;;10.00;97.60;;;;;;4197547;28;20052;-90
2022/03/17 02:20:03;;;;;;;27.30;13.43;;;10.00;97.50;;;;;;4216145;28;20071;-90
2022/03/17 02:22:04;;;;;;;25.70;12.95;;;10.10;97.90;;;;;;4214746;28;20412;-90
2022/03/17 02:26:27;;;;;;;25.52;13.70;;;10.00;97.80;;;;;;4215919;28;20052;-89
2022/03/17 02:28:30;;;;;;;26.45;13.82;;;10.00;97.80;;;;;;4216513;28;20036;-90
2022/03/17 02:30:34;;;;;;;27.42;14.43;;;10.00;98.00;;;;;;4217424;28;20508;-90
2022/03/17 02:32:35;;;;;;;23.52;13.45;;;10.00;98.10;;;;;;4224237;28;20047;-90
2022/03/17 02:34:35;;;;;;;24.55;12.70;;;10.00;98.00;;;;;;4233605;28;20103;-90
2022/03/17 02:36:48;;;;;;;23.17;13.50;;;10.00;98.00;;;;;;4233716;28;20040;-89
2022/03/17 02:38:49;;;;;;;25.77;12.30;;;10.00;98.20;;;;;;4233141;28;20067;-89
2022/03/17 02:40:52;;;;;;;27.85;15.05;;;10.00;98.20;;;;;;4229854;28;20094;-89
2022/03/17 02:42:57;;;;;;;29.27;14.30;;;10.20;98.50;;;;;;4201187;28;20098;-89
2022/03/17 02:44:59;;;;;;;23.65;13.10;;;10.00;98.40;;;;;;4214784;28;20508;-90
2022/03/17 02:47:00;;;;;;;26.80;13.80;;;10.00;98.50;;;;;;4197003;28;20044;-90
2022/03/17 02:49:01;;;;;;;25.92;13.50;;;;;;;;;;4214630;28;20437;-88
2022/03/17 02:51:03;;;;;;;25.27;13.25;;;;;;;;;;4214074;28;20044;-90
2022/03/17 02:53:07;;;;;;;27.38;13.32;;;;;;;;;;4214572;28;20373;-90
2022/03/17 02:55:12;;;;;;;24.88;12.88;;;;;;;;;;4230244;28;20059;-89
2022/03/17 02:57:14;;;;;;;24.40;11.93;;;;;;;;;;4198370;28;20090;-89
2022/03/17 02:59:16;;;;;;;24.42;12.45;;;;;;;;;;4197521;28;20094;-89
2022/03/17 03:01:18;;;;;;;25.13;12.13;;;;;;;;;;4197119;28;20047;-89
2022/03/17 03:03:19;;;;;;;27.40;13.45;;;;;;;;;;4213031;28;20416;-90
2022/03/17 03:05:20;;;;;;;27.67;13.40;;;;;;;;;;4213228;28;20054;-89
2022/03/17 03:07:21;;;;;;;24.40;12.05;;;;;;;;;;4197694;28;20037;-89
2022/03/17 03:09:22;;;;;;;26.08;12.88;;;;;;;;;;4197152;28;20131;-89
2022/03/17 03:11:23;;;;;;;28.48;14.93;;;;;;;;;;4196340;28;20044;-89
2022/03/17 03:13:24;;;;;;;26.23;13.07;;;;;;;;;;4212894;28;20052;-88
2022/03/17 03:15:26;;;;;;;24.13;13.52;;;;;;;;;;4196249;28;20101;-88
2022/03/17 03:17:27;;;;;;;26.23;14.40;;;;;;;;;;4197164;28;20072;-89
2022/03/17 03:19:28;;;;;;;24.10;13.52;;;;;;;;;;4195852;28;20048;-89
2022/03/17 03:21:30;;;;;;;27.95;14.10;;;;;;;;;;4212574;28;20044;-89
2022/03/17 03:23:31;;;;;;;27.77;13.77;;;;;;;;;;4212856;28;20047;-89
2022/03/17 03:25:32;;;;;;;24.00;12.23;;;;;;;;;;4197593;28;20400;-89
2022/03/17 03:27:33;;;;;;;26.80;13.50;;;;;;;;;;4196947;28;20123;-89
2022/03/17 03:29:35;;;;;;;29.13;14.65;;;;;;;;;;4197446;28;20056;-90
2022/03/17 03:31:36;;;;;;;28.65;14.10;;;;;;;;;;4212377;28;20056;-90
2022/03/17 03:33:37;;;;;;;24.55;13.00;;;;;;;;;;4197052;28;20475;-90
2022/03/17 03:38:00;;;;;;;29.08;14.18;;;;;;;;;;4196101;28;20407;-89
2022/03/17 03:40:01;;;;;;;23.38;13.07;;;;;;;;;;4195790;28;20130;-89
2022/03/17 03:42:03;;;;;;;26.90;14.57;;;;;;;;;;4212868;28;20048;-90
2022/03/17 03:44:04;;;;;;;25.67;13.77;;;;;;;;;;4212579;28;20048;-90
2022/03/17 03:46:06;;;;;;;25.73;14.23;;;;;;;;;;4197108;28;20052;-89
2022/03/17 03:48:07;;;;;;;25.33;13.80;;;;;;;;;;4197387;28;20446;-89
2022/03/17 03:50:08;;;;;;;26.65;13.40;;;;;;;;;;4196434;28;20110;-90
2022/03/17 03:52:11;;;;;;;28.23;14.65;;;;;;;;;;4197862;28;20045;-90
2022/03/17 03:54:18;;;;;;;27.20;14.68;;;;;;;;;;4201637;28;20044;-89
2022/03/17 03:56:19;;;;;;;26.23;13.70;;;;;;;;;;4201157;28;20071;-89
2022/03/17 03:58:20;;;;;;;28.15;15.48;;;;;;;;;;4216297;28;20052;-89
2022/03/17 04:00:32;;;;;;;24.75;13.23;;;;;;;;;;4215491;28;20047;-89
2022/03/17 04:02:33;;;;;;;23.70;12.93;;;;;;;;;;4200160;28;20106;-89
2022/03/17 04:04:34;;;;;;;28.90;14.80;;;;;;;;;;4215987;28;20527;-89
2022/03/17 04:06:41;;;;;;;23.48;14.07;;;;;;;;;;4198805;28;20048;-89
2022/03/17 04:08:42;;;;;;;25.40;13.40;;;;;;;;;;4199697;28;20080;-89
2022/03/17 04:10:43;;;;;;;28.55;15.95;;;;;;;;;;4200915;28;20084;-88
2022/03/17 04:12:44;;;;;;;27.33;14.38;;;;;;;;;;4201498;28;20045;-89
2022/03/17 04:14:45;;;;;;;26.58;15.13;;;;;;;;;;4216646;28;20391;-89
2022/03/17 04:16:47;;;;;;;28.10;14.77;;;;;;;;;;4216407;28;20047;-89
2022/03/17 04:18:48;;;;;;;25.35;15.50;;;;;;;;;;4201208;28;20455;-89
2022/03/17 04:20:49;;;;;;;27.27;15.30;;;;;;;;;;4201811;28;20040;-89
2022/03/17 04:22:51;;;;;;;28.48;15.45;;;;;;;;;;4216004;28;20515;-88
2022/03/17 04:24:53;;;;;;;32.10;16.90;;;;;;;;;;4199683;28;20036;-89
2022/03/17 04:26:54;;;;;;;31.70;16.33;;;;;;;;;;4199234;28;20048;-89
2022/03/17 04:28:56;;;;;;;30.63;14.63;;;;;;;;;;4215234;28;20051;-89
2022/03/17 04:30:58;;;;;;;31.63;16.80;;;;;;;;;;4198980;28;20122;-88
2022/03/17 04:33:00;;;;;;;28.27;16.58;;;;;;;;;;4198224;28;20044;-88
2022/03/17 04:35:01;;;;;;;32.67;16.88;;;;;;;;;;4215366;28;20539;-87
2022/03/17 04:37:02;;;;;;;28.85;16.05;;;;;;;;;;4199615;28;20131;-87
2022/03/17 04:39:04;;;;;;;32.63;18.15;;;;;;;;;;4215226;28;20059;-88
2022/03/17 04:41:05;;;;;;;31.75;18.08;;;;;;;;;;4198366;28;20055;-88
2022/03/17 04:43:06;;;;;;;30.15;15.93;;;;;;;;;;4199542;28;20084;-89
2022/03/17 04:45:09;;;;;;;31.60;17.42;;;;;;;;;;4214998;28;20121;-88
2022/03/17 04:47:10;;;;;;;31.38;16.15;;;;;;;;;;4214539;28;20139;-88
2022/03/17 04:49:11;;;;;;;35.35;18.33;;;;;;;;;;4210229;28;20044;-88
2022/03/17 04:51:12;;;;;;;34.28;18.08;;;;;;;;;;4215346;28;20044;-88
2022/03/17 04:53:29;;;;;;;32.35;18.23;;;;;;;;;;4215346;28;20487;-89
2022/03/17 04:55:30;;;;;;;34.67;18.92;;;;;;;;;;4198338;28;20094;-90
2022/03/17 04:57:31;;;;;;;36.33;20.58;;;;;;;;;;4216090;28;20043;-90
2022/03/17 04:59:32;;;;;;;34.88;19.08;;;;;;;;;;4216425;28;20084;-90
2022/03/17 05:01:34;;;;;;;38.85;20.13;;;;;;;;;;4215635;28;20436;-88
2022/03/17 05:03:35;;;;;;;37.70;20.75;;;;;;;;;;4214077;28;20048;-88
2022/03/17 05:05:37;;;;;;;39.45;21.25;;;;;;;;;;4214815;28;20055;-88
2022/03/17 05:07:39;;;;;;;40.53;19.77;;;;;;;;;;4198008;28;20137;-86
2022/03/17 05:09:40;;;;;;;39.40;20.60;;;;;;;;;;4213251;28;20051;-88
2022/03/17 05:11:44;;;;;;;39.85;20.40;;;;;;;;;;4198925;28;20041;-89
2022/03/17 05:13:48;;;;;;;46.67;22.33;;;;;;;;;;4198012;28;20115;-88
2022/03/17 05:15:49;;;;;;;39.10;19.48;;;;;;;;;;4199181;28;20041;-89
2022/03/17 05:17:50;;;;;;;40.58;20.92;;;;;;;;;;4198733;28;20078;-89
2022/03/17 05:19:51;;;;;;;39.45;20.40;;;;;;;;;;4197748;28;20473;-89
2022/03/17 05:21:53;;;;;;;35.78;17.90;;;;;;;;;;4182622;28;20155;-89
2022/03/17 05:23:54;;;;;;;32.58;16.98;;;;;;;;;;4211941;28;20108;-89
2022/03/17 05:25:56;;;;;;;27.17;13.25;;;;;;;;;;4214742;28;20048;-89
2022/03/17 05:27:57;;;;;;;13.68;6.95;;;;;;;;;;4211123;28;20041;-89
2022/03/17 05:29:58;;;;;;;14.00;7.32;;;;;;;;;;4201697;28;20095;-89
2022/03/17 05:31:59;;;;;;;10.40;6.18;;;;;;;;;;4214111;28;20048;-89
2022/03/17 05:34:01;;;;;;;12.85;5.70;;;;;;;;;;4214415;28;20591;-88
2022/03/17 05:36:05;;;;;;;8.18;4.88;;;;;;;;;;4216053;28;20048;-89
2022/03/17 05:38:06;;;;;;;8.05;5.10;;;;;;;;;;4197687;28;20044;-88
2022/03/17 05:40:14;;;;;;;7.28;4.72;;;;;;;;;;4215407;28;20044;-89
2022/03/17 05:42:16;;;;;;;14.98;5.72;;;;;;;;;;4197734;28;20052;-90
2022/03/17 05:44:17;;;;;;;6.97;4.68;;;;;;;;;;4214190;28;20052;-88
2022/03/17 05:46:19;;;;;;;10.32;5.15;;;;;;;;;;4214282;28;20044;-89
2022/03/17 05:48:20;;;;;;;8.48;4.88;;;;;;;;;;4197559;28;20408;-89
2022/03/17 05:50:24;;;;;;;9.70;4.80;;;;;;;;;;4214941;28;20089;-89
2022/03/17 05:52:27;;;;;;;7.72;5.15;;;;;;;;;;4215931;28;20051;-89
2022/03/17 05:54:29;;;;;;;7.10;4.07;;;;;;;;;;4198709;28;20044;-88
2022/03/17 05:56:30;;;;;;;7.07;4.35;;;10.30;99.20;;;;;;4216490;28;20097;-89
2022/03/17 05:58:32;;;;;;;10.02;4.88;;;;;;;;;;4198018;28;20131;-89
2022/03/17 06:00:33;;;;;;;13.48;6.85;;;;;;;;;;4216388;28;20044;-88
2022/03/17 06:02:37;;;;;;;14.50;6.22;;;;;;;;;;4198051;28;20052;-90
2022/03/17 06:04:41;;;;;;;14.15;6.93;;;;;;;;;;4215236;28;20044;-89
2022/03/17 06:06:44;;;;;;;14.68;6.28;;;;;;;;;;4214852;28;20109;-89
2022/03/17 06:08:46;;;;;;;17.02;7.07;;;;;;;;;;4197818;28;20080;-89
2022/03/17 06:10:47;;;;;;;15.55;6.35;;;;;;;;;;4198145;28;20045;-89
2022/03/17 06:12:51;;;;;;;15.02;7.13;;;;;;;;;;4215057;28;20051;-89
2022/03/17 06:14:52;;;;;;;16.15;6.10;;;;;;;;;;4215579;28;20044;-89
2022/03/17 06:16:53;;;;;;;18.00;5.45;;;;;;;;;;4215503;28;20105;-89
2022/03/17 06:18:54;;;;;;;13.23;5.45;;;;;;;;;;4214402;28;20044;-90
2022/03/17 06:20:56;;;;;;;15.55;4.68;;;;;;;;;;4197730;28;20037;-89
2022/03/17 06:23:01;;;;;;;14.55;4.43;;;;;;;;;;4214276;28;20547;-89
2022/03/17 06:25:02;;;;;;;10.90;4.18;;;;;;;;;;4214002;28;20081;-90
2022/03/17 06:27:03;;;;;;;11.68;4.00;;;;;;;;;;4214761;28;20492;-90
2022/03/17 06:29:05;;;;;;;12.68;4.30;;;;;;;;;;4214500;28;20115;-89
2022/03/17 06:31:06;;;;;;;10.85;3.95;;;;;;;;;;4213627;28;20106;-89
2022/03/17 06:33:07;;;;;;;14.27;3.42;;;;;;;;;;4214398;28;20056;-89
2022/03/17 06:35:10;;;;;;;14.73;3.70;;;;;;;;;;4196658;28;20412;-89
2022/03/17 06:37:12;;;;;;;11.77;4.05;;;;;;;;;;4214039;28;20609;-89
2022/03/17 06:39:13;;;;;;;11.98;3.50;;;;;;;;;;4214158;28;20051;-89
2022/03/17 06:41:15;;;;;;;17.48;3.78;;;;;;;;;;4214240;28;20094;-88
2022/03/17 06:43:17;;;;;;;7.43;3.22;;;8.40;99.90;;;;;;4215326;28;20113;-89
2022/03/17 06:45:18;;;;;;;18.10;2.70;;;;;;;;;;4214432;28;20044;-87
2022/03/17 06:47:19;;;;;;;15.13;3.45;;;7.90;99.90;;;;;;4196854;28;20420;-88
2022/03/17 06:49:21;;;;;;;9.52;2.38;;;;;;;;;;4213166;28;20051;-88
2022/03/17 06:51:22;;;;;;;13.27;3.58;;;7.80;99.90;;;;;;4213584;28;20493;-89
2022/03/17 06:53:23;;;;;;;7.28;2.65;;;7.80;99.90;;;;;;4196143;28;20059;-90
2022/03/17 06:55:24;;;;;;;18.75;3.38;;;;;;;;;;4214609;28;20048;-89
2022/03/17 06:57:25;;;;;;;8.98;2.20;;;;;;;;;;4213346;28;20386;-88
2022/03/17 06:59:26;;;;;;;12.30;2.20;;;;;;;;;;4196320;28;20048;-89
2022/03/17 07:01:27;;;;;;;10.48;1.95;;;;;;;;;;4214468;28;20040;-89
2022/03/17 07:03:28;;;;;;;2.80;1.48;;;;;;;;;;4214354;28;20055;-88
2022/03/17 07:05:29;;;;;;;13.20;2.65;;;;;;;;;;4214961;28;20503;-89
2022/03/17 07:07:31;;;;;;;7.03;1.67;;;;;;;;;;4214630;28;20116;-88
2022/03/17 07:09:31;;;;;;;7.72;2.22;;;7.80;99.90;;;;;;4214597;28;20066;-89
2022/03/17 07:11:32;;;;;;;4.03;1.50;;;8.40;99.90;;;;;;4213145;28;20047;-89
2022/03/17 07:13:33;;;;;;;5.05;1.60;;;7.70;99.90;;;;;;4213594;28;20535;-88
2022/03/17 07:15:34;;;;;;;15.40;4.28;;;7.70;99.90;;;;;;4215320;28;20101;-88
2022/03/17 07:17:39;;;;;;;5.82;1.13;;;7.70;99.90;;;;;;4196572;28;20099;-89
2022/03/17 07:19:40;;;;;;;9.38;1.75;;;8.60;99.90;;;;;;4213682;28;20043;-88
2022/03/17 07:21:41;;;;;;;4.88;1.02;;;7.90;99.90;;;;;;4214290;28;20074;-87
2022/03/17 07:23:42;;;;;;;10.63;1.35;;;;;;;;;;4209215;28;20040;-87
2022/03/17 07:25:43;;;;;;;9.00;2.00;;;;;;;;;;4205329;28;20110;-89
2022/03/17 07:27:45;;;;;;;12.52;2.28;;;;;;;;;;4197799;28;20124;-89
2022/03/17 07:29:48;;;;;;;6.82;1.67;;;;;;;;;;4197462;28;20075;-88
2022/03/17 07:31:49;;;;;;;8.52;1.30;;;;;;;;;;4197167;28;20099;-90
2022/03/17 07:33:51;;;;;;;8.00;2.05;;;;;;;;;;4213726;28;20047;-88
2022/03/17 07:35:52;;;;;;;7.88;1.55;;;;;;;;;;4197104;28;20045;-88
2022/03/17 07:37:53;;;;;;;8.35;1.38;;;;;;;;;;4214059;28;20147;-87
2022/03/17 07:39:55;;;;;;;4.00;0.98;;;;;;;;;;4198177;28;20036;-87
2022/03/17 07:41:58;;;;;;;6.63;1.13;;;;;;;;;;4204306;28;20463;-88
2022/03/17 07:44:00;;;;;;;7.78;1.13;;;;;;;;;;4213333;28;20094;-88
2022/03/17 07:46:11;;;;;;;10.43;0.85;;;;;;;;;;4214822;28;20492;-88
2022/03/17 07:48:12;;;;;;;10.43;2.42;;;;;;;;;;4217058;28;20044;-88
2022/03/17 07:50:15;;;;;;;10.43;1.15;;;;;;;;;;4216883;28;20095;-88
2022/03/17 07:52:16;;;;;;;10.40;1.23;;;;;;;;;;4216287;28;20466;-88
2022/03/17 07:54:18;;;;;;;20.05;1.88;;;;;;;;;;4213568;28;20055;-89
2022/03/17 07:56:20;;;;;;;5.70;0.88;;;;;;;;;;4230612;28;20086;-88
2022/03/17 07:58:23;;;;;;;8.18;2.10;;;;;;;;;;4213493;28;20052;-88
2022/03/17 08:00:25;;;;;;;13.40;1.92;;;;;;;;;;4213434;28;20036;-88
2022/03/17 08:02:27;;;;;;;5.63;1.30;;;;;;;;;;4214731;28;20084;-88
2022/03/17 08:04:29;;;;;;;6.55;0.93;;;;;;;;;;4213055;28;20139;-88
2022/03/17 08:06:30;;;;;;;8.00;1.75;;;;;;;;;;4213593;28;20531;-88
2022/03/17 08:08:34;;;;;;;8.10;1.63;;;;;;;;;;4214509;28;20491;-88
2022/03/17 08:10:35;;;;;;;10.82;1.08;;;;;;;;;;4214879;28;20052;-88
2022/03/17 08:12:36;;;;;;;7.20;1.20;;;;;;;;;;4213491;28;20040;-89
2022/03/17 08:14:37;;;;;;;7.93;1.05;;;;;;;;;;4213236;28;20055;-89
2022/03/17 08:16:39;;;;;;;8.05;1.73;;;;;;;;;;4230083;28;20088;-89
2022/03/17 08:18:41;;;;;;;13.20;1.85;;;;;;;;;;4213014;28;20048;-88
2022/03/17 08:20:42;;;;;;;9.05;2.40;;;;;;;;;;4196581;28;20539;-89
2022/03/17 08:22:43;;;;;;;13.65;1.92;;;;;;;;;;4197159;28;20057;-89
2022/03/17 08:24:44;;;;;;;11.40;2.08;;;;;;;;;;4198408;28;20040;-89
2022/03/17 08:26:45;;;;;;;16.65;1.67;;;;;;;;;;4197871;28;20064;-88
2022/03/17 08:28:46;;;;;;;15.25;2.63;;;;;;;;;;4196762;28;20052;-88
2022/03/17 08:30:48;;;;;;;18.25;2.65;;;;;;;;;;4180400;28;20576;-89
2022/03/17 08:32:50;;;;;;;15.65;1.60;;;;;;;;;;4197818;28;20124;-88
2022/03/17 08:34:53;;;;;;;17.20;2.47;;;;;;;;;;4197160;28;20540;-89
2022/03/17 08:36:56;;;;;;;15.57;2.05;;;;;;;;;;4197431;28;20048;-89
2022/03/17 08:38:57;;;;;;;13.23;1.65;;;;;;;;;;4197195;28;20056;-88
2022/03/17 08:40:58;;;;;;;18.60;2.53;;;;;;;;;;4200642;28;20109;-89
2022/03/17 08:42:59;;;;;;;14.68;2.10;;;;;;;;;;4200976;28;20049;-89
2022/03/17 08:45:00;;;;;;;15.65;2.08;;;;;;;;;;4201245;28;20040;-89
2022/03/17 08:49:24;;;;;;;16.20;2.63;;;;;;;;;;4199683;28;20053;-87
2022/03/17 08:51:26;;;;;;;15.63;2.75;;;;;;;;;;4199148;28;20123;-88
2022/03/17 08:53:27;;;;;;;13.77;3.00;;;;;;;;;;4200359;28;20044;-88
2022/03/17 08:55:28;;;;;;;11.32;1.77;;;;;;;;;;4199717;28;20049;-87
2022/03/17 08:57:29;;;;;;;9.27;1.55;;;;;;;;;;4182901;28;20049;-88
2022/03/17 08:59:31;;;;;;;9.55;1.02;;;;;;;;;;4199540;28;20809;-88
2022/03/17 09:01:32;;;;;;;12.13;1.42;;;;;;;;;;4199443;28;20432;-88
2022/03/17 09:03:33;;;;;;;11.70;1.35;;;;;;;;;;4199351;28;20056;-89
2022/03/17 09:05:35;;;;;;;6.00;1.60;;;;;;;;;;4200410;28;20499;-88
2022/03/17 09:07:36;;;;;;;9.63;2.05;;;;;;;;;;4199584;28;20511;-88
2022/03/17 09:09:38;;;;;;;6.25;1.25;;;;;;;;;;4200614;28;20064;-88
2022/03/17 09:11:40;;;;;;;9.10;1.50;;;;;;;;;;4199214;28;20052;-87
2022/03/17 09:13:42;;;;;;;8.73;1.30;;;;;;;;;;4200937;28;20051;-88
2022/03/17 09:15:43;;;;;;;10.38;1.23;;;;;;;;;;4198889;28;20056;-89
2022/03/17 09:17:44;;;;;;;8.15;1.33;;;;;;;;;;4202169;28;20131;-88
2022/03/17 09:19:45;;;;;;;10.90;1.25;;;;;;;;;;4217543;28;20105;-87
2022/03/17 09:21:47;;;;;;;11.60;1.38;;;;;;;;;;4216345;28;20051;-88
2022/03/17 09:23:50;;;;;;;7.50;1.38;;;;;;;;;;4215353;28;20082;-88
2022/03/17 09:25:51;;;;;;;11.35;1.98;;;;;;;;;;4215539;28;20562;-89
2022/03/17 09:27:52;;;;;;;7.70;1.20;;;;;;;;;;4215753;28;20165;-88
2022/03/17 09:29:53;;;;;;;10.95;1.00;;;;;;;;;;4216303;28;20040;-88
2022/03/17 09:31:58;;;;;;;10.55;1.27;;;;;;;;;;4215781;28;20585;-87
2022/03/17 09:34:00;;;;;;;16.20;2.35;;;;;;;;;;4215939;28;20404;-88
2022/03/17 09:36:01;;;;;;;15.27;1.65;;;;;;;;;;4217070;28;20135;-88
2022/03/17 09:38:03;;;;;;;16.55;2.13;;;;;;;;;;4217448;28;20119;-87
2022/03/17 09:40:04;;;;;;;17.38;1.27;;;;;;;;;;4217140;28;20086;-88
2022/03/17 09:42:06;;;;;;;7.93;1.90;;;;;;;;;;4217885;28;20043;-89
2022/03/17 09:44:07;;;;;;;11.38;1.40;;;;;;;;;;4203154;28;20059;-88
2022/03/17 09:46:08;;;;;;;11.40;1.88;;;;;;;;;;4230897;28;20044;-89
2022/03/17 09:48:10;;;;;;;10.30;1.15;;;;;;;;;;4232523;28;20084;-88
2022/03/17 09:50:14;;;;;;;10.52;1.50;;;;;;;;;;4233653;28;20048;-90
2022/03/17 09:52:18;;;;;;;11.48;1.73;;;;;;;;;;4230037;28;20055;-86
2022/03/17 09:54:20;;;;;;;7.47;1.20;;;;;;;;;;4217897;28;20051;-87
2022/03/17 09:56:25;;;;;;;12.55;2.20;;;;;;;;;;4216197;28;20097;-85
2022/03/17 09:58:26;;;;;;;11.20;1.67;;;;;;;;;;4214402;28;20101;-88
2022/03/17 10:00:47;;;;;;;6.10;1.13;;;;;;;;;;4195365;28;20667;-89
2022/03/17 10:02:48;;;;;;;8.77;1.80;;;;;;;;;;4209463;28;20048;-88
2022/03/17 10:04:49;;;;;;;9.05;1.05;;;;;;;;;;4200713;28;20463;-89
2022/03/17 10:06:53;;;;;;;7.60;1.10;;;;;;;;;;4217674;28;20056;-89
2022/03/17 10:08:56;;;;;;;11.93;1.83;;;;;;;;;;4204335;28;20501;-90
2022/03/17 10:10:57;;;;;;;11.27;2.25;;;;;;;;;;4215175;28;20135;-88
2022/03/17 10:13:05;;;;;;;12.95;2.70;;;;;;;;;;4214590;28;20091;-88
2022/03/17 10:15:16;;;;;;;13.57;2.17;;;;;;;;;;4215076;28;20048;-88
2022/03/17 10:17:34;;;;;;;12.57;1.30;;;;;;;;;;4214799;28;20417;-88
2022/03/17 10:19:36;;;;;;;10.63;2.38;;;;;;;;;;4216577;28;20044;-88
2022/03/17 10:21:38;;;;;;;18.42;3.95;;;;;;;;;;4207390;28;20060;-88
2022/03/17 10:23:45;;;;;;;16.00;1.90;;;;;;;;;;4188056;28;20044;-90
2022/03/17 10:25:47;;;;;;;12.70;1.80;;;;;;;;;;4218950;28;20431;-90
2022/03/17 10:27:49;;;;;;;9.25;2.13;;;;;;;;;;4214893;28;20048;-88
2022/03/17 10:30:02;;;;;;;13.73;2.17;;;;;;;;;;4216164;28;20040;-89
2022/03/17 10:32:05;;;;;;;9.98;1.80;;;;;;;;;;4198685;28;20911;-88
2022/03/17 10:34:06;;;;;;;10.60;1.48;;;;;;;;;;4198450;28;20506;-87
2022/03/17 10:36:20;;;;;;;8.60;1.60;;;;;;;;;;4198910;28;20587;-88
2022/03/17 10:38:23;;;;;;;12.75;1.95;;;;;;;;;;4215144;28;20081;-88
2022/03/17 10:40:31;;;;;;;11.15;1.67;;;;;;;;;;4198643;28;20404;-88
2022/03/17 10:42:32;;;;;;;11.18;1.83;;;;;;;;;;4198862;28;20048;-89
2022/03/17 10:44:34;;;;;;;5.22;1.42;;;;;;;;;;4197190;28;20058;-89
2022/03/17 10:46:35;;;;;;;13.45;1.30;;;;;;;;;;4214060;28;20079;-91
2022/03/17 10:48:52;;;;;;;8.85;1.33;;;;;;;;;;4196957;28;20099;-88
2022/03/17 10:50:53;;;;;;;6.70;1.20;;;;;;;;;;4198652;28;20370;-89
2022/03/17 10:52:56;;;;;;;12.25;1.75;;;;;;;;;;4197680;28;20044;-89
2022/03/17 10:55:01;;;;;;;9.18;1.50;;;;;;;;;;4198957;28;20041;-89
2022/03/17 10:57:06;;;;;;;13.40;1.98;;;;;;;;;;4197915;28;20090;-89
2022/03/17 10:59:08;;;;;;;12.77;2.13;;;;;;;;;;4198373;28;20109;-87
2022/03/17 11:01:10;;;;;;;8.40;1.50;;;;;;;;;;4198217;28;20127;-89
2022/03/17 11:03:11;;;;;;;9.73;3.05;;;;;;;;;;4199571;28;20577;-89
2022/03/17 11:05:12;;;;;;;5.72;1.60;;;;;;;;;;4199276;28;20048;-89
2022/03/17 11:07:14;;;;;;;8.75;2.25;;;;;;;;;;4200527;28;20048;-88
2022/03/17 11:09:18;;;;;;;9.13;2.08;;;;;;;;;;4213324;28;20109;-90
2022/03/17 11:11:20;;;;;;;9.20;1.40;;;;;;;;;;4180942;28;20042;-88
2022/03/17 11:13:21;;;;;;;9.98;1.42;;;;;;;;;;4199717;28;20049;-87
2022/03/17 11:15:29;;;;;;;13.15;1.70;;;;;;;;;;4197064;28;20075;-87
2022/03/17 11:17:31;;;;;;;13.13;1.52;;;;;;;;;;4215938;28;20502;-87
2022/03/17 11:19:33;;;;;;;10.52;2.25;;;;;;;;;;4214623;28;20326;-86
2022/03/17 11:21:34;;;;;;;21.48;4.72;;;;;;;;;;4214322;28;20055;-88
2022/03/17 11:23:54;;;;;;;11.20;1.70;;;;;;;;;;4213808;28;20412;-89
2022/03/17 11:25:56;;;;;;;10.80;1.30;;;;;;;;;;4214061;28;20097;-89
2022/03/17 11:27:59;;;;;;;8.73;1.40;;;;;;;;;;4231428;28;20051;-89
2022/03/17 11:30:12;;;;;;;9.00;2.17;;;;;;;;;;4214988;28;20048;-88
2022/03/17 11:32:29;;;;;;;8.15;1.60;;;;;;;;;;4214321;28;20142;-88
2022/03/17 11:34:41;;;;;;;6.75;1.10;;;;;;;;;;4214399;28;20078;-87
2022/03/17 11:37:03;;;;;;;11.52;1.60;;;;;;;;;;4198253;28;20580;-88
2022/03/17 11:39:18;;;;;;;10.43;1.75;;;;;;;;;;4202442;28;20044;-88
2022/03/17 11:41:22;;;;;;;8.60;1.50;;;;;;;;;;4215757;28;20048;-88
2022/03/17 11:43:23;;;;;;;7.93;1.60;;;;;;;;;;4214472;28;20126;-87
2022/03/17 11:45:26;;;;;;;11.50;1.15;;;;;;;;;;4215948;28;20044;-87
2022/03/17 11:47:27;;;;;;;9.45;1.45;;;;;;;;;;4216583;28;20442;-87
2022/03/17 11:49:30;;;;;;;8.18;1.88;;;;;;;;;;4216038;28;20040;-87
2022/03/17 11:51:35;;;;;;;6.22;1.27;;;;;;;;;;4215887;28;20040;-87
2022/03/17 11:53:47;;;;;;;11.85;1.90;;;;;;;;;;4214588;28;20048;-89
2022/03/17 11:55:52;;;;;;;17.77;2.00;;;;;;;;;;4214338;28;20097;-88
2022/03/17 11:58:15;;;;;;;10.75;1.38;;;;;;;;;;4213326;28;20051;-89
2022/03/17 12:00:19;;;;;;;11.52;1.38;;;;;;;;;;4222796;28;20059;-88
2022/03/17 12:02:28;;;;;;;8.98;2.45;;;;;;;;;;4214155;28;20059;-88